createdAt,value
2019-05-26T00:01:48.396Z,47.8
2019-05-26T00:12:06.161Z,47.6
2019-05-26T00:22:22.162Z,47.9
2019-05-26T00:32:40.174Z,48.3
2019-05-26T00:43:27.843Z,48.0
2019-05-26T00:54:15.927Z,47.9
2019-05-26T01:05:04.170Z,48.1
2019-05-26T01:15:50.747Z,48.6
2019-05-26T01:26:41.734Z,48.0
2019-05-26T01:37:26.891Z,48.7
2019-05-26T01:47:40.273Z,47.7
2019-05-26T01:57:57.024Z,47.9
2019-05-26T02:08:14.525Z,47.7
2019-05-26T02:19:07.097Z,48.8
2019-05-26T02:29:52.616Z,48.9
2019-05-26T02:40:43.337Z,48.6
2019-05-26T02:50:57.715Z,48.7
2019-05-26T03:02:00.831Z,49.8
2019-05-26T03:12:01.685Z,49.8
2019-05-26T03:22:14.868Z,50.5
2019-05-26T03:33:05.226Z,51.1
2019-05-26T03:43:17.049Z,53.9
2019-05-26T03:53:30.373Z,55.7
2019-05-26T04:03:43.708Z,57.4
2019-05-26T04:13:59.380Z,57.7
2019-05-26T04:24:49.359Z,58.5
2019-05-26T04:35:06.334Z,58.8
2019-05-26T04:45:43.510Z,60.7
2019-05-26T04:56:02.545Z,62.2
2019-05-26T05:06:53.344Z,63.8
2019-05-26T05:17:12.125Z,64.9
2019-05-26T05:27:26.183Z,63.8
2019-05-26T05:37:54.739Z,63.5
2019-05-26T05:48:46.166Z,64.2
2019-05-26T05:59:31.188Z,65.6
2019-05-26T06:09:45.596Z,66.2
2019-05-26T06:19:59.954Z,66.7
2019-05-26T06:30:55.161Z,66.0
2019-05-26T06:41:46.693Z,65.8
2019-05-26T06:52:31.872Z,65.2
2019-05-26T07:03:19.335Z,64.6
2019-05-26T07:13:33.166Z,62.8
2019-05-26T07:24:20.404Z,62.6
2019-05-26T07:34:34.157Z,61.6
2019-05-26T07:44:53.509Z,61.5
2019-05-26T07:55:41.244Z,61.0
2019-05-26T08:06:02.026Z,60.2
2019-05-26T08:16:17.530Z,59.5
2019-05-26T08:26:36.523Z,58.5
2019-05-26T08:36:53.315Z,56.8
2019-05-26T08:47:09.405Z,54.9
2019-05-26T08:57:24.774Z,54.1
2019-05-26T09:07:37.757Z,53.6
2019-05-26T09:18:36.542Z,52.7
2019-05-26T09:35:27.993Z,51.4
2019-05-26T09:45:45.565Z,51.7
2019-05-26T09:56:13.476Z,46.9
2019-05-26T10:06:29.130Z,43.3
2019-05-26T10:16:45.960Z,41.4
2019-05-26T10:27:02.472Z,40.7
2019-05-26T10:37:33.271Z,39.7
2019-05-26T10:48:20.012Z,40.2
2019-05-26T10:59:10.029Z,39.6
2019-05-26T11:09:23.596Z,40.6
2019-05-26T11:19:37.449Z,40.9
2019-05-26T11:29:56.324Z,41.1
2019-05-26T11:40:11.883Z,41.8
2019-05-26T11:50:25.482Z,42.5
2019-05-26T12:00:39.235Z,42.5
2019-05-26T12:10:57.796Z,42.2
2019-05-26T12:21:42.634Z,42.7
2019-05-26T12:32:12.502Z,42.7
2019-05-26T12:42:26.661Z,42.8
2019-05-26T12:53:35.915Z,43.5
2019-05-26T13:03:53.954Z,44.3
2019-05-26T13:14:10.510Z,44.6
2019-05-26T13:24:37.578Z,44.2
2019-05-26T13:35:32.843Z,44.3
2019-05-26T13:46:54.250Z,44.8
2019-05-26T13:57:10.140Z,45.0
2019-05-26T14:07:29.132Z,45.4
2019-05-26T14:18:18.073Z,45.7
2019-05-26T14:28:33.746Z,45.7
2019-05-26T14:39:23.357Z,45.7
2019-05-26T14:50:29.255Z,45.9
2019-05-26T15:00:47.969Z,46.3
2019-05-26T15:13:39.703Z,46.4
2019-05-26T15:23:55.629Z,47.1
2019-05-26T15:34:43.072Z,47.8
2019-05-26T15:44:59.146Z,48.1
2019-05-26T15:55:15.089Z,48.6
2019-05-26T16:06:01.781Z,49.0
2019-05-26T16:16:19.689Z,49.2
2019-05-26T16:26:38.290Z,49.5
2019-05-26T16:36:52.677Z,49.6
2019-05-26T16:47:09.659Z,49.6
2019-05-26T16:57:28.660Z,49.8
2019-05-26T17:07:47.047Z,49.8
2019-05-26T17:34:16.176Z,50.4
2019-05-26T17:45:07.822Z,50.2
2019-05-26T17:55:24.814Z,50.4
2019-05-26T18:05:40.708Z,50.9
2019-05-26T18:16:31.845Z,51.7
2019-05-26T18:26:49.897Z,51.0
2019-05-26T18:37:40.594Z,51.6
2019-05-26T18:48:31.380Z,51.9
2019-05-26T18:58:46.928Z,51.9
2019-05-26T19:09:34.243Z,52.1
2019-05-26T19:19:50.600Z,51.9
2019-05-26T19:30:09.590Z,52.3
2019-05-26T19:40:55.257Z,52.6
2019-05-26T19:51:46.149Z,53.6
2019-05-26T20:02:33.613Z,53.3
2019-05-26T20:12:48.774Z,53.6
2019-05-26T20:23:36.401Z,53.7
2019-05-26T20:33:51.931Z,54.7
2019-05-26T20:44:06.765Z,54.4
2019-05-26T20:54:22.567Z,54.3
2019-05-26T21:05:10.246Z,54.6
2019-05-26T21:15:24.710Z,54.0
2019-05-26T21:26:12.340Z,54.2
2019-05-26T21:37:00.275Z,55.2
2019-05-26T21:47:50.671Z,55.2
2019-05-26T21:58:07.924Z,55.8
2019-05-26T22:08:24.175Z,55.9
2019-05-26T22:18:42.316Z,56.1
2019-05-26T22:29:29.215Z,56.6
2019-05-26T22:39:47.017Z,57.0
2019-05-26T22:50:39.384Z,57.6
2019-05-26T23:01:25.838Z,57.9
2019-05-26T23:11:44.501Z,59.3
2019-05-26T23:22:36.255Z,60.4
2019-05-26T23:33:27.159Z,61.3
2019-05-26T23:43:43.206Z,62.2
2019-05-26T23:53:56.580Z,64.3
